Time,TemperatureF,DewpointF,PressureIn,WindDirection,WindDirectionDegrees,WindSpeedMPH,WindSpeedGustMPH,Humidity,HourlyPrecipIn,Conditions,Clouds,dailyrainin,SoftwareType,DateUTC
2013-06-21 00:07:00,64.3,55.0,30.23,East,98,0.0,2.0,73,0.00,,,0.00,weatherlink.com 1.10,2013-06-21 04:07:00,
2013-06-21 00:22:00,63.8,55.0,30.23,West,279,0.0,3.0,74,0.00,,,0.00,weatherlink.com 1.10,2013-06-21 04:22:00,
2013-06-21 00:37:00,63.4,55.0,30.23,West,259,0.0,3.0,74,0.00,,,0.00,weatherlink.com 1.10,2013-06-21 04:37:00,
2013-06-21 00:52:00,63.1,55.0,30.24,West,268,1.0,3.0,75,0.00,,,0.00,weatherlink.com 1.10,2013-06-21 04:52:00,
2013-06-21 01:07:00,62.7,55.0,30.23,ESE,109,1.0,2.0,75,0.00,,,0.00,weatherlink.com 1.10,2013-06-21 05:07:00,
2013-06-21 01:22:00,62.0,55.0,30.23,East,91,1.0,2.0,77,0.00,,,0.00,weatherlink.com 1.10,2013-06-21 05:22:00,
2013-06-21 01:37:00,61.5,54.0,30.23,WSW,244,0.0,1.0,77,0.00,,,0.00,weatherlink.com 1.10,2013-06-21 05:37:00,
2013-06-21 01:52:00,61.3,54.0,30.23,WSW,250,1.0,4.0,77,0.00,,,0.00,weatherlink.com 1.10,2013-06-21 05:52:00,
2013-06-21 02:07:00,61.1,54.0,30.23,SW,232,0.0,3.0,78,0.00,,,0.00,weatherlink.com 1.10,2013-06-21 06:07:00,
2013-06-21 02:22:00,60.9,54.0,30.23,WSW,257,1.0,4.0,79,0.00,,,0.00,weatherlink.com 1.10,2013-06-21 06:22:00,
2013-06-21 02:37:00,60.6,54.0,30.23,WSW,248,0.0,3.0,80,0.00,,,0.00,weatherlink.com 1.10,2013-06-21 06:37:00,
2013-06-21 02:52:00,60.2,54.0,30.22,West,259,0.0,3.0,81,0.00,,,0.00,weatherlink.com 1.10,2013-06-21 06:52:00,
2013-06-21 03:07:00,60.0,54.0,30.21,ESE,105,0.0,3.0,81,0.00,,,0.00,weatherlink.com 1.10,2013-06-21 07:07:00,
2013-06-21 03:22:00,59.8,54.0,30.22,East,80,0.0,5.0,82,0.00,,,0.00,weatherlink.com 1.10,2013-06-21 07:22:00,
2013-06-21 03:37:00,59.5,54.0,30.22,NW,308,0.0,2.0,83,0.00,,,0.00,weatherlink.com 1.10,2013-06-21 07:37:00,
2013-06-21 03:52:00,59.4,54.0,30.22,East,86,0.0,2.0,83,0.00,,,0.00,weatherlink.com 1.10,2013-06-21 07:52:00,
2013-06-21 04:07:00,59.2,54.0,30.22,ENE,57,0.0,2.0,83,0.00,,,0.00,weatherlink.com 1.10,2013-06-21 08:07:00,
2013-06-21 04:22:00,59.1,54.0,30.22,West,268,0.0,5.0,83,0.00,,,0.00,weatherlink.com 1.10,2013-06-21 08:22:00,
2013-06-21 04:37:00,58.9,54.0,30.22,WSW,245,0.0,2.0,83,0.00,,,0.00,weatherlink.com 1.10,2013-06-21 08:37:00,
2013-06-21 04:52:00,58.7,54.0,30.22,SW,235,0.0,1.0,83,0.00,,,0.00,weatherlink.com 1.10,2013-06-21 08:52:00,
2013-06-21 05:07:00,58.6,54.0,30.22,NW,326,1.0,5.0,83,0.00,,,0.00,weatherlink.com 1.10,2013-06-21 09:07:00,
2013-06-21 05:22:00,58.4,54.0,30.23,West,259,0.0,1.0,84,0.00,,,0.00,weatherlink.com 1.10,2013-06-21 09:22:00,
2013-06-21 05:37:00,58.4,54.0,30.23,West,273,0.0,1.0,84,0.00,,,0.00,weatherlink.com 1.10,2013-06-21 09:37:00,
2013-06-21 05:52:00,58.5,53.0,30.23,WSW,245,0.0,3.0,83,0.00,,,0.00,weatherlink.com 1.10,2013-06-21 09:52:00,
2013-06-21 06:07:00,58.9,54.0,30.23,WNW,287,0.0,3.0,83,0.00,,,0.00,weatherlink.com 1.10,2013-06-21 10:07:00,
2013-06-21 06:22:00,59.5,54.0,30.23,WSW,249,0.0,3.0,82,0.00,,,0.00,weatherlink.com 1.10,2013-06-21 10:22:00,
2013-06-21 06:37:00,60.1,54.0,30.23,WNW,303,1.0,3.0,81,0.00,,,0.00,weatherlink.com 1.10,2013-06-21 10:37:00,
2013-06-21 06:52:00,61.1,55.0,30.23,SW,226,3.0,4.0,79,0.00,,,0.00,weatherlink.com 1.10,2013-06-21 10:52:00,
2013-06-21 07:07:00,62.4,55.0,30.23,WSW,246,0.0,3.0,77,0.00,,,0.00,weatherlink.com 1.10,2013-06-21 11:07:00,
2013-06-21 07:22:00,63.3,56.0,30.23,West,267,0.0,4.0,76,0.00,,,0.00,weatherlink.com 1.10,2013-06-21 11:22:00,
2013-06-21 07:37:00,64.7,57.0,30.23,WSW,241,2.0,3.0,75,0.00,,,0.00,weatherlink.com 1.10,2013-06-21 11:37:00,
2013-06-21 07:52:00,66.0,57.0,30.23,SSW,197,0.0,3.0,73,0.00,,,0.00,weatherlink.com 1.10,2013-06-21 11:52:00,
2013-06-21 08:07:00,66.7,57.0,30.23,WSW,244,1.0,6.0,72,0.00,,,0.00,weatherlink.com 1.10,2013-06-21 12:07:00,
2013-06-21 08:22:00,68.1,58.0,30.22,West,279,0.0,5.0,70,0.00,,,0.00,weatherlink.com 1.10,2013-06-21 12:22:00,
2013-06-21 08:37:00,69.2,59.0,30.23,ENE,62,2.0,5.0,69,0.00,,,0.00,weatherlink.com 1.10,2013-06-21 12:37:00,
2013-06-21 08:53:00,70.3,59.0,30.22,West,260,2.0,6.0,68,0.00,,,0.00,weatherlink.com 1.10,2013-06-21 12:53:00,
2013-06-21 09:08:00,71.1,60.0,30.22,SW,218,3.0,5.0,67,0.00,,,0.00,weatherlink.com 1.10,2013-06-21 13:08:00,
2013-06-21 09:23:00,71.9,59.0,30.22,West,267,1.0,6.0,65,0.00,,,0.00,weatherlink.com 1.10,2013-06-21 13:23:00,
2013-06-21 09:38:00,72.9,60.0,30.21,WNW,296,2.0,4.0,65,0.00,,,0.00,weatherlink.com 1.10,2013-06-21 13:38:00,
2013-06-21 09:53:00,73.9,60.0,30.22,SW,230,4.0,6.0,63,0.00,,,0.00,weatherlink.com 1.10,2013-06-21 13:53:00,
2013-06-21 10:08:00,74.8,60.0,30.22,WNW,286,6.0,7.0,61,0.00,,,0.00,weatherlink.com 1.10,2013-06-21 14:08:00,
2013-06-21 10:23:00,75.7,61.0,30.22,SW,230,5.0,7.0,60,0.00,,,0.00,weatherlink.com 1.10,2013-06-21 14:23:00,
2013-06-21 10:38:00,76.1,61.0,30.22,WNW,287,2.0,7.0,59,0.00,,,0.00,weatherlink.com 1.10,2013-06-21 14:38:00,
2013-06-21 10:53:00,77.0,61.0,30.22,SW,236,2.0,5.0,59,0.00,,,0.00,weatherlink.com 1.10,2013-06-21 14:53:00,
2013-06-21 11:08:00,77.7,63.0,30.23,SSW,213,1.0,5.0,60,0.00,,,0.00,weatherlink.com 1.10,2013-06-21 15:08:00,
2013-06-21 11:23:00,79.0,62.0,30.23,West,273,1.0,6.0,57,0.00,,,0.00,weatherlink.com 1.10,2013-06-21 15:23:00,
2013-06-21 11:38:00,79.7,62.0,30.22,WNW,284,1.0,7.0,55,0.00,,,0.00,weatherlink.com 1.10,2013-06-21 15:38:00,
2013-06-21 11:53:00,80.2,63.0,30.22,South,182,0.0,5.0,55,0.00,,,0.00,weatherlink.com 1.10,2013-06-21 15:53:00,
2013-06-21 12:23:00,81.9,62.0,30.21,WSW,240,2.0,3.0,52,0.00,,,0.00,weatherlink.com 1.10,2013-06-21 16:23:00,
2013-06-21 12:38:00,82.7,63.0,30.21,West,263,2.0,5.0,51,0.00,,,0.00,weatherlink.com 1.10,2013-06-21 16:38:00,
2013-06-21 12:53:00,82.2,62.0,30.21,SW,221,5.0,8.0,50,0.00,,,0.00,weatherlink.com 1.10,2013-06-21 16:53:00,
2013-06-21 13:08:00,83.4,62.0,30.21,SSW,209,6.0,6.0,48,0.00,,,0.00,weatherlink.com 1.10,2013-06-21 17:08:00,
2013-06-21 13:23:00,83.3,61.0,30.20,SW,229,3.0,7.0,47,0.00,,,0.00,weatherlink.com 1.10,2013-06-21 17:23:00,
2013-06-21 13:53:00,83.6,61.0,30.20,WNW,297,2.0,8.0,46,0.00,,,0.00,weatherlink.com 1.10,2013-06-21 17:53:00,
2013-06-21 14:08:00,83.6,61.0,30.19,WSW,254,2.0,5.0,46,0.00,,,0.00,weatherlink.com 1.10,2013-06-21 18:08:00,
2013-06-21 14:23:00,82.7,61.0,30.19,SSW,210,2.0,7.0,48,0.00,,,0.00,weatherlink.com 1.10,2013-06-21 18:23:00,
2013-06-21 14:38:00,83.5,62.0,30.19,SW,229,2.0,6.0,48,0.00,,,0.00,weatherlink.com 1.10,2013-06-21 18:38:00,
2013-06-21 14:53:00,83.8,61.0,30.19,West,280,1.0,5.0,47,0.00,,,0.00,weatherlink.com 1.10,2013-06-21 18:53:00,
2013-06-21 15:08:00,83.6,61.0,30.18,West,280,2.0,8.0,47,0.00,,,0.00,weatherlink.com 1.10,2013-06-21 19:08:00,
2013-06-21 15:23:00,84.5,60.0,30.18,SSE,156,0.0,7.0,44,0.00,,,0.00,weatherlink.com 1.10,2013-06-21 19:23:00,
2013-06-21 15:38:00,83.4,60.0,30.18,West,270,4.0,6.0,46,0.00,,,0.00,weatherlink.com 1.10,2013-06-21 19:38:00,
2013-06-21 15:54:00,83.6,61.0,30.18,WNW,283,0.0,5.0,47,0.00,,,0.00,weatherlink.com 1.10,2013-06-21 19:54:00,
2013-06-21 16:09:00,83.7,60.0,30.18,WNW,300,0.0,5.0,44,0.00,,,0.00,weatherlink.com 1.10,2013-06-21 20:09:00,
2013-06-21 16:24:00,83.5,61.0,30.18,West,273,0.0,1.0,47,0.00,,,0.00,weatherlink.com 1.10,2013-06-21 20:24:00,
2013-06-21 16:39:00,84.3,60.0,30.18,SSE,154,1.0,4.0,44,0.00,,,0.00,weatherlink.com 1.10,2013-06-21 20:39:00,
2013-06-21 16:54:00,85.4,59.0,30.17,WNW,296,3.0,5.0,41,0.00,,,0.00,weatherlink.com 1.10,2013-06-21 20:54:00,
2013-06-21 17:09:00,85.5,60.0,30.16,WSW,246,1.0,5.0,42,0.00,,,0.00,weatherlink.com 1.10,2013-06-21 21:09:00,
2013-06-21 17:24:00,85.5,59.0,30.16,West,272,1.0,5.0,41,0.00,,,0.00,weatherlink.com 1.10,2013-06-21 21:24:00,
2013-06-21 17:39:00,85.6,61.0,30.17,SW,218,1.0,4.0,43,0.00,,,0.00,weatherlink.com 1.10,2013-06-21 21:39:00,
2013-06-21 17:54:00,85.8,58.0,30.16,WSW,238,0.0,2.0,39,0.00,,,0.00,weatherlink.com 1.10,2013-06-21 21:54:00,
2013-06-21 18:09:00,85.3,58.0,30.16,West,262,2.0,6.0,40,0.00,,,0.00,weatherlink.com 1.10,2013-06-21 22:09:00,
2013-06-21 18:24:00,84.5,58.0,30.17,SW,225,1.0,4.0,41,0.00,,,0.00,weatherlink.com 1.10,2013-06-21 22:24:00,
2013-06-21 18:39:00,84.4,58.0,30.17,SW,222,1.0,4.0,41,0.00,,,0.00,weatherlink.com 1.10,2013-06-21 22:39:00,
2013-06-21 18:54:00,83.5,59.0,30.18,SW,229,1.0,6.0,43,0.00,,,0.00,weatherlink.com 1.10,2013-06-21 22:54:00,
2013-06-21 19:09:00,82.3,61.0,30.18,WSW,254,0.0,4.0,48,0.00,,,0.00,weatherlink.com 1.10,2013-06-21 23:09:00,
2013-06-21 19:24:00,81.4,61.0,30.18,WSW,241,0.0,1.0,50,0.00,,,0.00,weatherlink.com 1.10,2013-06-21 23:24:00,
2013-06-21 19:39:00,80.5,61.0,30.18,WSW,248,0.0,1.0,52,0.00,,,0.00,weatherlink.com 1.10,2013-06-21 23:39:00,
2013-06-21 19:54:00,79.7,62.0,30.18,WSW,242,0.0,1.0,55,0.00,,,0.00,weatherlink.com 1.10,2013-06-21 23:54:00,
2013-06-21 20:09:00,78.7,62.0,30.18,West,273,1.0,1.0,57,0.00,,,0.00,weatherlink.com 1.10,2013-06-22 00:09:00,
2013-06-21 20:24:00,77.7,64.0,30.18,WSW,250,0.0,3.0,63,0.00,,,0.00,weatherlink.com 1.10,2013-06-22 00:24:00,
2013-06-21 20:39:00,76.9,65.0,30.18,WSW,253,0.0,2.0,66,0.00,,,0.00,weatherlink.com 1.10,2013-06-22 00:39:00,
2013-06-21 20:54:00,76.3,65.0,30.19,West,273,0.0,6.0,67,0.00,,,0.00,weatherlink.com 1.10,2013-06-22 00:54:00,
2013-06-21 21:09:00,75.7,64.0,30.19,West,272,0.0,1.0,68,0.00,,,0.00,weatherlink.com 1.10,2013-06-22 01:09:00,
2013-06-21 21:24:00,75.1,64.0,30.19,West,261,0.0,3.0,69,0.00,,,0.00,weatherlink.com 1.10,2013-06-22 01:24:00,
2013-06-21 21:39:00,74.4,64.0,30.20,West,269,0.0,3.0,70,0.00,,,0.00,weatherlink.com 1.10,2013-06-22 01:39:00,
2013-06-21 21:54:00,73.7,64.0,30.20,WSW,252,0.0,4.0,71,0.00,,,0.00,weatherlink.com 1.10,2013-06-22 01:54:00,
2013-06-21 22:09:00,73.2,63.0,30.20,West,259,0.0,4.0,71,0.00,,,0.00,weatherlink.com 1.10,2013-06-22 02:09:00,
2013-06-21 22:24:00,72.7,63.0,30.20,West,263,0.0,3.0,71,0.00,,,0.00,weatherlink.com 1.10,2013-06-22 02:24:00,
2013-06-21 22:39:00,72.2,62.0,30.20,ESE,108,0.0,2.0,71,0.00,,,0.00,weatherlink.com 1.10,2013-06-22 02:39:00,
2013-06-21 22:54:00,71.7,62.0,30.20,WSW,252,0.0,2.0,72,0.00,,,0.00,weatherlink.com 1.10,2013-06-22 02:54:00,
2013-06-21 23:09:00,71.1,62.0,30.20,East,89,0.0,3.0,72,0.00,,,0.00,weatherlink.com 1.10,2013-06-22 03:09:00,
2013-06-21 23:24:00,70.7,61.0,30.20,WNW,298,0.0,2.0,72,0.00,,,0.00,weatherlink.com 1.10,2013-06-22 03:24:00,
2013-06-21 23:39:00,70.3,61.0,30.20,WNW,298,0.0,2.0,72,0.00,,,0.00,weatherlink.com 1.10,2013-06-22 03:39:00,
2013-06-21 23:54:00,69.8,60.0,30.20,West,273,0.0,3.0,72,0.00,,,0.00,weatherlink.com 1.10,2013-06-22 03:54:00,